Peotone Weather
Peotone-Weather Station Historical Data
 
Daily Summary for September 29, 2020 Units:  English    Metric   Both
Daily Weekly Monthly Yearly Custom
  Current: High: Low: Average:
Temperature: 53.5 °F 59.9 °F 43.4 °F 51.1 °F
Dew Point: 46.9 °F 48.9 °F 42.4 °F 45.5 °F
Humidity: 78% 96.3% 59.8% 83%
Wind Speed: 5.9mph 10.9mph 2mph 5mph
Wind Gust: 8.1mph 17.2mph - -
WindWest - - WNW
Pressure: 29.82 in 29.94 in 29.82 in -
Precipitation: 0.00 in      
Historical Graphs
 
 
Tabular Data for September 29, 2020
Time Temperature Dew Point Pressure Wind Wind Speed Wind Gust Humidity Rainfall Rate (Hourly) solar
00:04 48.1 °F 45.9 °F 29.89 in West 3.9 mph 6.9 mph 92.2% 0.00 in 0 W/m2
00:09 48.1 °F 46.1 °F 29.89 in West 3.8 mph 6.9 mph 92.8% 0.00 in 0 W/m2
00:14 48.2 °F 46.2 °F 29.89 in West 3.4 mph 6.9 mph 92.8% 0.00 in 0 W/m2
00:19 48.4 °F 46.3 °F 29.89 in West 3.8 mph 5.8 mph 92.7% 0.00 in 0 W/m2
00:24 48.3 °F 46.1 °F 29.89 in WNW 2.8 mph 5.8 mph 92% 0.00 in 0 W/m2
00:29 48.2 °F 45.9 °F 29.88 in WNW 2.9 mph 4.6 mph 92% 0.00 in 0 W/m2
00:34 47.6 °F 45.4 °F 29.88 in WNW 2.4 mph 4.6 mph 92.2% 0.00 in 0 W/m2
00:39 47.3 °F 45.4 °F 29.88 in West 2.6 mph 4.6 mph 93% 0.00 in 0 W/m2
00:44 47.5 °F 45.6 °F 29.89 in West 3.3 mph 5.8 mph 93% 0.00 in 0 W/m2
00:49 47.6 °F 45.7 °F 29.88 in WNW 3.8 mph 5.8 mph 93% 0.00 in 0 W/m2
00:54 47.9 °F 46 °F 29.88 in WNW 3.5 mph 5.8 mph 93% 0.00 in 0 W/m2
00:59 48.2 °F 46.1 °F 29.88 in West 3.5 mph 5.8 mph 92.3% 0.00 in 0 W/m2
01:04 48.3 °F 45.9 °F 29.88 in West 4.3 mph 5.8 mph 91.5% 0.00 in 0 W/m2
01:09 48.3 °F 45.8 °F 29.88 in West 4 mph 6.9 mph 91% 0.00 in 0 W/m2
01:14 48.3 °F 45.8 °F 29.89 in WNW 3.6 mph 6.9 mph 91% 0.00 in 0 W/m2
01:19 48 °F 45.5 °F 29.89 in West 3.7 mph 5.8 mph 91% 0.00 in 0 W/m2
01:24 47.7 °F 45.2 °F 29.89 in West 3.9 mph 6.9 mph 91% 0.00 in 0 W/m2
01:29 47.5 °F 45.2 °F 29.89 in West 4.3 mph 6.9 mph 91.7% 0.00 in 0 W/m2
01:34 47.3 °F 45 °F 29.89 in WNW 3 mph 5.8 mph 91.7% 0.00 in 0 W/m2
01:39 47.2 °F 45 °F 29.89 in WNW 3.1 mph 4.6 mph 92% 0.00 in 0 W/m2
01:44 47.1 °F 45.2 °F 29.89 in WNW 2 mph 4.6 mph 93% 0.00 in 0 W/m2
01:49 47.1 °F 45.2 °F 29.89 in WNW 2.7 mph 4.6 mph 93% 0.00 in 0 W/m2
01:54 47 °F 45.1 °F 29.89 in West 2.5 mph 4.6 mph 93% 0.00 in 0 W/m2
01:59 47 °F 45.1 °F 29.89 in West 2.5 mph 4.6 mph 93% 0.00 in 0 W/m2
02:04 47 °F 45.1 °F 29.89 in WNW 3 mph 4.6 mph 93% 0.00 in 0 W/m2
02:09 47 °F 45.1 °F 29.89 in West 4.2 mph 6.9 mph 93% 0.00 in 0 W/m2
02:14 46.9 °F 45 °F 29.89 in West 3.8 mph 8.1 mph 93% 0.00 in 0 W/m2
02:19 46.7 °F 44.8 °F 29.89 in West 3.3 mph 8.1 mph 93% 0.00 in 0 W/m2
02:24 46.4 °F 44.5 °F 29.89 in West 4.2 mph 8.1 mph 93% 0.00 in 0 W/m2
02:29 46 °F 44.1 °F 29.89 in West 4.3 mph 8.1 mph 93% 0.00 in 0 W/m2
02:34 45.7 °F 43.8 °F 29.88 in West 3.8 mph 6.9 mph 93% 0.00 in 0 W/m2
02:39 45.5 °F 43.9 °F 29.88 in West 3.6 mph 5.8 mph 93.9% 0.00 in 0 W/m2
02:44 45.4 °F 43.8 °F 29.88 in West 3.5 mph 5.8 mph 94% 0.00 in 0 W/m2
02:49 45.2 °F 43.5 °F 29.88 in West 3.2 mph 5.8 mph 94% 0.00 in 0 W/m2
02:54 44.9 °F 43.3 °F 29.88 in West 3.9 mph 6.9 mph 94% 0.00 in 0 W/m2
02:59 44.9 °F 43.3 °F 29.88 in West 3.8 mph 6.9 mph 94% 0.00 in 0 W/m2
03:04 44.9 °F 43.3 °F 29.88 in West 2.7 mph 5.8 mph 94.2% 0.00 in 0 W/m2
03:09 44.9 °F 43.3 °F 29.88 in West 3.1 mph 4.6 mph 94% 0.00 in 0 W/m2
03:14 45 °F 43.6 °F 29.88 in West 3.9 mph 5.8 mph 94.9% 0.00 in 0 W/m2
03:19 45 °F 43.7 °F 29.88 in West 3.2 mph 5.8 mph 95% 0.00 in 0 W/m2
03:24 45.1 °F 43.7 °F 29.88 in West 3.5 mph 5.8 mph 95% 0.00 in 0 W/m2
03:29 45.1 °F 43.8 °F 29.88 in West 3.9 mph 5.8 mph 95% 0.00 in 0 W/m2
03:34 45.1 °F 43.7 °F 29.88 in West 3.6 mph 5.8 mph 95% 0.00 in 0 W/m2
03:39 45.1 °F 43.7 °F 29.88 in West 4 mph 6.9 mph 95% 0.00 in 0 W/m2
03:44 45 °F 43.7 °F 29.88 in West 3.9 mph 6.9 mph 95% 0.00 in 0 W/m2
03:49 45.1 °F 43.7 °F 29.88 in WNW 3.8 mph 5.8 mph 95% 0.00 in 0 W/m2
03:54 45.1 °F 43.8 °F 29.88 in WNW 4.3 mph 5.8 mph 95% 0.00 in 0 W/m2
03:59 45.1 °F 43.8 °F 29.88 in WNW 4 mph 5.8 mph 95% 0.00 in 0 W/m2
04:04 45.1 °F 43.6 °F 29.88 in WNW 4.2 mph 5.8 mph 94.3% 0.00 in 0 W/m2
04:09 45.1 °F 43.4 °F 29.88 in WNW 3.7 mph 6.9 mph 94% 0.00 in 0 W/m2
04:14 45.1 °F 43.6 °F 29.88 in WNW 4 mph 6.9 mph 94.5% 0.00 in 0 W/m2
04:19 45.1 °F 43.5 °F 29.88 in WNW 3 mph 5.8 mph 94.3% 0.00 in 0 W/m2
04:24 45 °F 43.4 °F 29.88 in West 3 mph 5.8 mph 94% 0.00 in 0 W/m2
04:29 44.8 °F 43.2 °F 29.89 in West 2.6 mph 4.6 mph 94% 0.00 in 0 W/m2
04:34 44.7 °F 43 °F 29.89 in West 2.9 mph 4.6 mph 94% 0.00 in 0 W/m2
04:39 44.5 °F 42.8 °F 29.89 in West 3.2 mph 4.6 mph 94% 0.00 in 0 W/m2
04:44 44.2 °F 42.6 °F 29.89 in West 2.9 mph 4.6 mph 94% 0.00 in 0 W/m2
04:49 44.1 °F 42.6 °F 29.89 in WNW 2.4 mph 4.6 mph 94.6% 0.00 in 0 W/m2
04:54 44.2 °F 42.8 °F 29.89 in West 3.9 mph 6.9 mph 95% 0.00 in 0 W/m2
04:59 44.1 °F 42.8 °F 29.89 in West 3.5 mph 6.9 mph 95% 0.00 in 0 W/m2
05:04 44.2 °F 42.8 °F 29.89 in WNW 2.9 mph 5.8 mph 95% 0.00 in 0 W/m2
05:09 44.2 °F 42.9 °F 29.89 in WNW 3.3 mph 5.8 mph 95% 0.00 in 0 W/m2
05:14 44.2 °F 42.9 °F 29.89 in WNW 4.2 mph 6.9 mph 95% 0.00 in 0 W/m2
05:19 44.2 °F 42.9 °F 29.89 in WNW 4 mph 8.1 mph 95% 0.00 in 0 W/m2
05:24 44.2 °F 42.8 °F 29.89 in WNW 3.9 mph 8.1 mph 95% 0.00 in 0 W/m2
05:29 44.1 °F 42.8 °F 29.89 in WNW 3.7 mph 6.9 mph 95% 0.00 in 0 W/m2
05:34 44 °F 42.7 °F 29.90 in WNW 4.2 mph 5.8 mph 95% 0.00 in 0 W/m2
05:39 43.9 °F 42.6 °F 29.90 in WNW 3.6 mph 5.8 mph 95% 0.00 in 0 W/m2
05:44 43.8 °F 42.5 °F 29.90 in WNW 3.7 mph 6.9 mph 95% 0.00 in 0 W/m2
05:49 43.7 °F 42.4 °F 29.90 in NW 2.6 mph 6.9 mph 95% 0.00 in 0 W/m2
05:54 43.6 °F 42.4 °F 29.90 in WNW 3 mph 4.6 mph 95.3% 0.00 in 0 W/m2
05:59 43.6 °F 42.5 °F 29.90 in WNW 2.4 mph 4.6 mph 96% 0.00 in 0 W/m2
06:04 43.6 °F 42.5 °F 29.90 in WNW 3 mph 4.6 mph 96% 0.00 in 0 W/m2
06:09 43.5 °F 42.4 °F 29.90 in WNW 2.5 mph 4.6 mph 95.7% 0.00 in 0 W/m2
06:14 43.5 °F 42.5 °F 29.90 in WNW 4.6 mph 8.1 mph 96% 0.00 in 0 W/m2
06:19 43.6 °F 42.5 °F 29.90 in WNW 4.5 mph 8.1 mph 96% 0.00 in 0 W/m2
06:24 43.6 °F 42.6 °F 29.91 in WNW 5.3 mph 8.1 mph 96% 0.00 in 0 W/m2
06:29 43.6 °F 42.5 °F 29.91 in WNW 5.3 mph 8.1 mph 96% 0.00 in 0 W/m2
06:34 43.6 °F 42.5 °F 29.91 in WNW 4.1 mph 8.1 mph 96% 0.00 in 0 W/m2
06:39 43.5 °F 42.4 °F 29.91 in WNW 3.4 mph 6.9 mph 96% 0.00 in 0 W/m2
06:44 43.5 °F 42.4 °F 29.91 in West 4 mph 6.9 mph 96% 0.00 in 0 W/m2
06:49 43.5 °F 42.4 °F 29.91 in West 4.7 mph 6.9 mph 96% 0.00 in 5 W/m2
06:54 43.4 °F 42.4 °F 29.91 in WNW 3.3 mph 6.9 mph 96% 0.00 in 7 W/m2
06:59 43.4 °F 42.4 °F 29.91 in WNW 4.4 mph 6.9 mph 96% 0.00 in 9 W/m2
07:04 43.5 °F 42.5 °F 29.91 in WNW 4.3 mph 6.9 mph 96% 0.00 in 11 W/m2
07:09 43.6 °F 42.5 °F 29.92 in WNW 5.1 mph 6.9 mph 96% 0.00 in 12 W/m2
07:14 43.6 °F 42.5 °F 29.92 in WNW 4.5 mph 6.9 mph 96% 0.00 in 14 W/m2
07:19 43.6 °F 42.5 °F 29.92 in WNW 5.4 mph 8.1 mph 96% 0.00 in 16 W/m2
07:24 43.7 °F 42.6 °F 29.92 in WNW 5.6 mph 8.1 mph 96% 0.00 in 18 W/m2
07:29 43.8 °F 42.7 °F 29.92 in WNW 5.5 mph 9.2 mph 96% 0.00 in 19 W/m2
07:34 43.8 °F 42.7 °F 29.92 in WNW 5.7 mph 9.2 mph 96% 0.00 in 21 W/m2
07:39 43.8 °F 42.8 °F 29.92 in WNW 5.2 mph 9.2 mph 96% 0.00 in 21 W/m2
07:44 44 °F 42.9 °F 29.92 in WNW 4.7 mph 8.1 mph 96% 0.00 in 23 W/m2
07:49 44.2 °F 43.1 °F 29.92 in WNW 5.2 mph 9.2 mph 96% 0.00 in 25 W/m2
07:54 44.5 °F 43.5 °F 29.92 in WNW 3 mph 9.2 mph 96.3% 0.00 in 32 W/m2
07:59 44.9 °F 43.9 °F 29.93 in WNW 5.7 mph 10.3 mph 96.3% 0.00 in 44 W/m2
08:04 45.1 °F 44 °F 29.93 in WNW 6.2 mph 10.3 mph 96% 0.00 in 54 W/m2
08:09 45.3 °F 44.2 °F 29.92 in West 5.2 mph 9.2 mph 96% 0.00 in 58 W/m2
08:14 45.5 °F 44.5 °F 29.93 in West 5.4 mph 9.2 mph 96% 0.00 in 156 W/m2
08:19 45.7 °F 44.7 °F 29.93 in WNW 5.3 mph 8.1 mph 96% 0.00 in 144 W/m2
08:24 46.2 °F 45.1 °F 29.93 in WNW 7.5 mph 10.3 mph 96% 0.00 in 141 W/m2
08:29 46.1 °F 45 °F 29.93 in WNW 4.7 mph 10.3 mph 95.8% 0.00 in 137 W/m2
08:34 46 °F 44.9 °F 29.93 in West 4.6 mph 6.9 mph 96% 0.00 in 137 W/m2
08:39 46.3 °F 45.2 °F 29.93 in West 3.9 mph 5.8 mph 96% 0.00 in 244 W/m2
08:44 46.6 °F 45.5 °F 29.93 in WNW 4 mph 8.1 mph 96% 0.00 in 308 W/m2
08:49 47.2 °F 46.2 °F 29.93 in WNW 4.8 mph 8.1 mph 96.3% 0.00 in 169 W/m2
08:54 47.3 °F 46.2 °F 29.93 in West 5.3 mph 8.1 mph 96% 0.00 in 195 W/m2
08:59 47.8 °F 46.8 °F 29.93 in WNW 5.6 mph 11.5 mph 96% 0.00 in 193 W/m2
09:04 47.9 °F 46.5 °F 29.93 in WNW 3.2 mph 11.5 mph 94.8% 0.00 in 144 W/m2
09:09 47.9 °F 46.5 °F 29.93 in WNW 5.6 mph 10.3 mph 94.6% 0.00 in 255 W/m2
09:14 48.2 °F 46.6 °F 29.93 in WNW 6.7 mph 10.3 mph 94.1% 0.00 in 239 W/m2
09:19 48.2 °F 46.5 °F 29.93 in WNW 5 mph 10.3 mph 93.4% 0.00 in 178 W/m2
09:24 48.3 °F 46.5 °F 29.93 in WNW 4.5 mph 8.1 mph 93.4% 0.00 in 186 W/m2
09:29 48.4 °F 46.8 °F 29.93 in NW 4.6 mph 6.9 mph 93.9% 0.00 in 176 W/m2
09:34 48.8 °F 47 °F 29.94 in NW 5 mph 9.2 mph 93.6% 0.00 in 176 W/m2
09:39 48.6 °F 46.6 °F 29.94 in WNW 5 mph 9.2 mph 92.7% 0.00 in 211 W/m2
09:44 48.7 °F 46.8 °F 29.93 in West 5.8 mph 10.3 mph 93% 0.00 in 211 W/m2
09:49 49.1 °F 47.3 °F 29.93 in West 6.7 mph 10.3 mph 93.2% 0.00 in 199 W/m2
09:54 49 °F 46.9 °F 29.94 in West 5.6 mph 10.3 mph 92.3% 0.00 in 193 W/m2
09:59 48.7 °F 46.6 °F 29.94 in NW 4.3 mph 10.3 mph 92.6% 0.00 in 221 W/m2
10:04 48.8 °F 46.8 °F 29.94 in West 5 mph 10.3 mph 92.7% 0.00 in 278 W/m2
10:09 49.4 °F 47.4 °F 29.94 in West 5.3 mph 10.3 mph 92.5% 0.00 in 260 W/m2
10:14 49.4 °F 46.9 °F 29.93 in West 6.3 mph 10.3 mph 91% 0.00 in 311 W/m2
10:19 49.8 °F 47.5 °F 29.93 in West 6.2 mph 10.3 mph 91.8% 0.00 in 362 W/m2
10:24 50.1 °F 47.5 °F 29.93 in WSW 5.6 mph 9.2 mph 91% 0.00 in 362 W/m2
10:29 50.4 °F 47.7 °F 29.93 in West 5.6 mph 9.2 mph 90.5% 0.00 in 350 W/m2
10:34 50.5 °F 47.7 °F 29.93 in West 7.8 mph 12.6 mph 90% 0.00 in 399 W/m2
10:39 50.7 °F 47.8 °F 29.93 in West 7.3 mph 12.6 mph 89.7% 0.00 in 316 W/m2
10:44 51 °F 47.8 °F 29.93 in West 4.6 mph 11.5 mph 88.7% 0.00 in 278 W/m2
10:49 51 °F 47.9 °F 29.93 in West 6.4 mph 9.2 mph 88.9% 0.00 in 345 W/m2
10:54 51.5 °F 48.1 °F 29.93 in West 4.8 mph 9.2 mph 88.4% 0.00 in 345 W/m2
10:59 51.8 °F 48.2 °F 29.93 in WNW 4.6 mph 9.2 mph 87.3% 0.00 in 288 W/m2
11:04 52.1 °F 48.4 °F 29.93 in WNW 4 mph 9.2 mph 87.3% 0.00 in 346 W/m2
11:09 52.8 °F 48.5 °F 29.93 in NW 4.7 mph 8.1 mph 85.4% 0.00 in 255 W/m2
11:14 52.7 °F 48.2 °F 29.93 in WNW 8.1 mph 13.8 mph 84.4% 0.00 in 302 W/m2
11:19 52.8 °F 48.1 °F 29.93 in WNW 7.3 mph 13.8 mph 83.9% 0.00 in 311 W/m2
11:24 53.3 °F 48.4 °F 29.93 in NW 4.9 mph 11.5 mph 83.2% 0.00 in 311 W/m2
11:29 53.2 °F 47.7 °F 29.93 in West 7.8 mph 12.6 mph 81.7% 0.00 in 478 W/m2
11:34 53.8 °F 47.9 °F 29.92 in West 8.4 mph 13.8 mph 80.3% 0.00 in 478 W/m2
11:39 54.1 °F 47.7 °F 29.92 in WNW 7.2 mph 13.8 mph 78.7% 0.00 in 302 W/m2
11:44 53.9 °F 47.8 °F 29.92 in WNW 5.5 mph 12.6 mph 79.7% 0.00 in 285 W/m2
11:49 54.1 °F 47.6 °F 29.92 in WNW 5.3 mph 11.5 mph 78.5% 0.00 in 302 W/m2
11:54 54.3 °F 47.8 °F 29.92 in WNW 5.8 mph 10.3 mph 78.8% 0.00 in 830 W/m2
11:59 54.9 °F 48.2 °F 29.91 in WNW 8.7 mph 12.6 mph 78.1% 0.00 in 830 W/m2
12:04 55.6 °F 48.9 °F 29.91 in WNW 4.6 mph 12.6 mph 78% 0.00 in 332 W/m2
12:09 56.2 °F 48.8 °F 29.91 in West 5.8 mph 11.5 mph 76.3% 0.00 in 438 W/m2
12:14 56.2 °F 48.4 °F 29.91 in NW 5 mph 11.5 mph 75.2% 0.00 in 438 W/m2
12:19 55.6 °F 47.9 °F 29.91 in West 7.7 mph 13.8 mph 75.3% 0.00 in 227 W/m2
12:24 55.4 °F 47.9 °F 29.91 in WNW 6.8 mph 13.8 mph 76% 0.00 in 153 W/m2
12:29 54.9 °F 47.6 °F 29.90 in WNW 4.8 mph 9.2 mph 76.3% 0.00 in 174 W/m2
12:34 54.8 °F 47.5 °F 29.90 in WNW 6.4 mph 10.3 mph 76.2% 0.00 in 190 W/m2
12:39 54.8 °F 47.1 °F 29.90 in WNW 6.8 mph 11.5 mph 75.2% 0.00 in 216 W/m2
12:44 55.3 °F 47.6 °F 29.90 in WNW 6.8 mph 11.5 mph 75.4% 0.00 in 283 W/m2
12:49 55.5 °F 47.3 °F 29.89 in NNW 5.6 mph 11.5 mph 73.8% 0.00 in 197 W/m2
12:54 55.4 °F 47.2 °F 29.89 in NW 6.2 mph 10.3 mph 74% 0.00 in 207 W/m2
12:59 55.6 °F 47.4 °F 29.89 in NW 6.1 mph 11.5 mph 73.9% 0.00 in 267 W/m2
13:04 56.3 °F 47.7 °F 29.89 in WNW 7.6 mph 11.5 mph 72.7% 0.00 in 441 W/m2
13:09 56.4 °F 47 °F 29.88 in WNW 5.9 mph 11.5 mph 70.7% 0.00 in 327 W/m2
13:14 56.5 °F 46.6 °F 29.88 in WNW 8.3 mph 14.9 mph 69.3% 0.00 in 292 W/m2
13:19 56.4 °F 46.3 °F 29.88 in WNW 8 mph 14.9 mph 69% 0.00 in 258 W/m2
13:24 56.3 °F 46.5 °F 29.88 in WNW 7.6 mph 12.6 mph 69.7% 0.00 in 394 W/m2
13:29 56.8 °F 47.6 °F 29.88 in NW 4.9 mph 11.5 mph 71.3% 0.00 in 406 W/m2
13:34 57.7 °F 47.5 °F 29.87 in WNW 5.9 mph 12.6 mph 68.9% 0.00 in 914 W/m2
13:39 58.9 °F 46.8 °F 29.87 in NW 7.3 mph 13.8 mph 64.1% 0.00 in 877 W/m2
13:44 58.3 °F 46.1 °F 29.87 in WNW 9.1 mph 16.1 mph 63.7% 0.00 in 1011 W/m2
13:49 58.7 °F 46.5 °F 29.86 in WNW 7.4 mph 16.1 mph 63.7% 0.00 in 1009 W/m2
13:54 58.3 °F 45.8 °F 29.86 in WNW 8.9 mph 14.9 mph 63.1% 0.00 in 814 W/m2
13:59 58.7 °F 47.1 °F 29.86 in West 10.1 mph 14.9 mph 65.4% 0.00 in 879 W/m2
14:04 59.4 °F 47.6 °F 29.86 in West 9.1 mph 14.9 mph 65% 0.00 in 879 W/m2
14:09 59.8 °F 47.3 °F 29.85 in West 10.3 mph 14.9 mph 63.1% 0.00 in 758 W/m2
14:14 59.3 °F 46.4 °F 29.85 in WNW 8.7 mph 14.9 mph 62.1% 0.00 in 775 W/m2
14:19 59.7 °F 47.4 °F 29.85 in West 4.9 mph 14.9 mph 63.8% 0.00 in 805 W/m2
14:24 59.9 °F 47.2 °F 29.85 in WNW 7 mph 14.9 mph 62.6% 0.00 in 830 W/m2
14:29 59 °F 46.6 °F 29.85 in WNW 10.3 mph 14.9 mph 63.5% 0.00 in 167 W/m2
14:34 58 °F 46.3 °F 29.85 in West 8.8 mph 14.9 mph 65% 0.00 in 719 W/m2
14:39 59 °F 47.3 °F 29.85 in West 10.9 mph 16.1 mph 65.1% 0.00 in 775 W/m2
14:44 59.6 °F 46.6 °F 29.85 in WNW 9.5 mph 16.1 mph 62.1% 0.00 in 775 W/m2
14:49 58.6 °F 46.1 °F 29.85 in WNW 8.3 mph 14.9 mph 63% 0.00 in 220 W/m2
14:54 57.9 °F 45.9 °F 29.85 in WNW 7 mph 14.9 mph 64.1% 0.00 in 128 W/m2
14:59 57.7 °F 45.7 °F 29.85 in WNW 8 mph 13.8 mph 64.1% 0.00 in 171 W/m2
15:04 58.1 °F 45.7 °F 29.84 in WNW 9.1 mph 14.9 mph 63.2% 0.00 in 735 W/m2
15:09 58.4 °F 45.7 °F 29.84 in WNW 9.3 mph 17.2 mph 62.7% 0.00 in 693 W/m2
15:14 58.4 °F 44.9 °F 29.84 in West 9.5 mph 17.2 mph 60.8% 0.00 in 195 W/m2
15:19 58 °F 45.3 °F 29.84 in West 10.1 mph 16.1 mph 62.5% 0.00 in 274 W/m2
15:24 58.5 °F 45.5 °F 29.84 in West 9.8 mph 16.1 mph 62% 0.00 in 294 W/m2
15:29 59.2 °F 45.7 °F 29.84 in West 8.5 mph 17.2 mph 60.8% 0.00 in 160 W/m2
15:34 58.8 °F 44.8 °F 29.84 in West 7.3 mph 17.2 mph 59.8% 0.00 in 160 W/m2
15:39 58.5 °F 45 °F 29.84 in WNW 5.1 mph 11.5 mph 60.7% 0.00 in 172 W/m2
15:44 58.8 °F 46 °F 29.84 in WNW 6.3 mph 11.5 mph 62.4% 0.00 in 172 W/m2
15:49 58.8 °F 45.3 °F 29.84 in WNW 8.7 mph 13.8 mph 60.9% 0.00 in 132 W/m2
15:54 58.4 °F 45.4 °F 29.84 in WNW 8.7 mph 13.8 mph 61.9% 0.00 in 165 W/m2
15:59 58.5 °F 45.7 °F 29.85 in WNW 7.1 mph 13.8 mph 62.5% 0.00 in 167 W/m2
16:04 58.1 °F 45.6 °F 29.85 in WNW 5.9 mph 13.8 mph 62.9% 0.00 in 139 W/m2
16:09 58 °F 46 °F 29.85 in WNW 5.6 mph 11.5 mph 64.2% 0.00 in 123 W/m2
16:14 57.9 °F 46 °F 29.85 in WNW 6.1 mph 10.3 mph 64.4% 0.00 in 114 W/m2
16:19 57.8 °F 45.7 °F 29.85 in WNW 5 mph 10.3 mph 63.9% 0.00 in 109 W/m2
16:24 57.8 °F 45.6 °F 29.85 in NW 4.7 mph 10.3 mph 63.6% 0.00 in 100 W/m2
16:29 57.7 °F 45.6 °F 29.85 in WNW 5.6 mph 10.3 mph 63.9% 0.00 in 79 W/m2
16:34 57.7 °F 45.5 °F 29.85 in WNW 4.5 mph 10.3 mph 63.6% 0.00 in 81 W/m2
16:39 57.7 °F 45.4 °F 29.85 in WNW 4.7 mph 8.1 mph 63.5% 0.00 in 95 W/m2
16:44 57.7 °F 45.3 °F 29.84 in NW 5.5 mph 10.3 mph 63.1% 0.00 in 93 W/m2
16:49 57.7 °F 45.3 °F 29.85 in WNW 4.2 mph 10.3 mph 63.2% 0.00 in 151 W/m2
16:54 57.7 °F 45 °F 29.85 in WNW 6.2 mph 10.3 mph 62.5% 0.00 in 151 W/m2
16:59 57.8 °F 45.1 °F 29.84 in WNW 6.3 mph 10.3 mph 62.5% 0.00 in 121 W/m2
17:04 57.7 °F 45.2 °F 29.84 in WNW 6.7 mph 10.3 mph 62.8% 0.00 in 98 W/m2
17:09 57.8 °F 45.5 °F 29.84 in WNW 4.9 mph 10.3 mph 63.7% 0.00 in 100 W/m2
17:14 57.7 °F 45.6 °F 29.84 in NW 6.1 mph 10.3 mph 63.9% 0.00 in 83 W/m2
17:19 57.6 °F 45.7 °F 29.85 in WNW 5.8 mph 10.3 mph 64.4% 0.00 in 72 W/m2
17:24 57.5 °F 45.9 °F 29.85 in NW 4.6 mph 10.3 mph 64.9% 0.00 in 72 W/m2
17:29 57.4 °F 45.9 °F 29.85 in NW 4.8 mph 8.1 mph 65.3% 0.00 in 49 W/m2
17:34 57.3 °F 46 °F 29.85 in WNW 4.7 mph 8.1 mph 65.8% 0.00 in 32 W/m2
17:39 57.2 °F 46.1 °F 29.85 in WNW 4.3 mph 9.2 mph 66.4% 0.00 in 18 W/m2
17:44 57.1 °F 46 °F 29.85 in WNW 4.5 mph 9.2 mph 66.3% 0.00 in 12 W/m2
17:49 56.9 °F 46.4 °F 29.85 in WNW 3.8 mph 9.2 mph 67.6% 0.00 in 16 W/m2
17:54 56.8 °F 46.4 °F 29.85 in WNW 4.6 mph 6.9 mph 68% 0.00 in 16 W/m2
17:59 56.7 °F 46.4 °F 29.85 in WNW 4.1 mph 6.9 mph 68.3% 0.00 in 16 W/m2
18:04 56.6 °F 46.5 °F 29.85 in WNW 3.4 mph 6.9 mph 68.9% 0.00 in 14 W/m2
18:09 56.5 °F 46.8 °F 29.84 in WNW 4 mph 9.2 mph 69.9% 0.00 in 12 W/m2
18:14 56.3 °F 46.6 °F 29.84 in WNW 4 mph 9.2 mph 69.8% 0.00 in 9 W/m2
18:19 56.3 °F 46.7 °F 29.84 in WNW 3.8 mph 6.9 mph 70.2% 0.00 in 5 W/m2
18:24 56.1 °F 46.7 °F 29.84 in WNW 3.6 mph 6.9 mph 70.7% 0.00 in 0 W/m2
18:29 56 °F 46.7 °F 29.84 in WNW 3.2 mph 4.6 mph 70.8% 0.00 in 0 W/m2
18:34 56 °F 46.5 °F 29.84 in NW 3.7 mph 6.9 mph 70.6% 0.00 in 0 W/m2
18:39 55.9 °F 46.7 °F 29.84 in WNW 3.1 mph 6.9 mph 71.3% 0.00 in 0 W/m2
18:44 55.7 °F 46.7 °F 29.84 in WNW 2.9 mph 6.9 mph 71.6% 0.00 in 0 W/m2
18:49 55.7 °F 46.6 °F 29.84 in WNW 3.8 mph 8.1 mph 71.5% 0.00 in 0 W/m2
18:54 55.6 °F 46.6 °F 29.84 in WNW 3 mph 8.1 mph 71.6% 0.00 in 0 W/m2
18:59 55.5 °F 46.7 °F 29.83 in WNW 3.1 mph 5.8 mph 72% 0.00 in 0 W/m2
19:04 55.3 °F 46.8 °F 29.83 in WNW 3.6 mph 5.8 mph 73.1% 0.00 in 0 W/m2
19:09 55.1 °F 46.7 °F 29.83 in WNW 3.5 mph 5.8 mph 73.3% 0.00 in 0 W/m2
19:14 55.1 °F 46.9 °F 29.83 in WNW 3.7 mph 5.8 mph 73.9% 0.00 in 0 W/m2
19:19 55.1 °F 46.8 °F 29.83 in WNW 3.8 mph 5.8 mph 73.5% 0.00 in 0 W/m2
19:24 55.2 °F 46.7 °F 29.83 in WNW 4.4 mph 6.9 mph 73% 0.00 in 0 W/m2
19:29 55.2 °F 46.8 °F 29.84 in WNW 4.6 mph 8.1 mph 73.2% 0.00 in 0 W/m2
19:34 55.2 °F 46.8 °F 29.84 in WNW 4.1 mph 8.1 mph 73.3% 0.00 in 0 W/m2
19:39 55.1 °F 46.7 °F 29.83 in West 5 mph 8.1 mph 73.2% 0.00 in 0 W/m2
19:44 55.2 °F 46.7 °F 29.83 in West 4.9 mph 9.2 mph 73% 0.00 in 0 W/m2
19:49 55.2 °F 46.7 °F 29.83 in WNW 4.9 mph 9.2 mph 73.2% 0.00 in 0 W/m2
19:54 55.1 °F 46.9 °F 29.83 in West 3.8 mph 8.1 mph 73.9% 0.00 in 0 W/m2
19:59 55 °F 47 °F 29.83 in West 3.8 mph 5.8 mph 74.5% 0.00 in 0 W/m2
20:04 54.8 °F 47 °F 29.83 in West 3.6 mph 5.8 mph 75% 0.00 in 0 W/m2
20:09 54.6 °F 47.1 °F 29.83 in West 3.6 mph 5.8 mph 75.8% 0.00 in 0 W/m2
20:14 54.4 °F 47.2 °F 29.83 in West 4.2 mph 6.9 mph 76.7% 0.00 in 0 W/m2
20:19 54.2 °F 47.2 °F 29.82 in WSW 3.4 mph 6.9 mph 77% 0.00 in 0 W/m2
20:24 54.1 °F 47.2 °F 29.82 in West 3.5 mph 4.6 mph 77.3% 0.00 in 0 W/m2
20:29 54.1 °F 47.2 °F 29.82 in West 3.1 mph 6.9 mph 77.6% 0.00 in 0 W/m2
20:34 53.9 °F 46.9 °F 29.82 in West 3.4 mph 6.9 mph 77.2% 0.00 in 0 W/m2
20:39 53.8 °F 46.8 °F 29.83 in West 3.7 mph 6.9 mph 77.3% 0.00 in 0 W/m2
20:44 53.7 °F 46.8 °F 29.83 in West 3.8 mph 6.9 mph 77.6% 0.00 in 0 W/m2
20:49 53.6 °F 46.5 °F 29.83 in West 3.4 mph 6.9 mph 77% 0.00 in 0 W/m2
20:54 53.5 °F 46.7 °F 29.83 in West 5.1 mph 6.9 mph 77.6% 0.00 in 0 W/m2
20:59 53.5 °F 46.7 °F 29.82 in West 5.1 mph 8.1 mph 77.5% 0.00 in 0 W/m2
21:04 53.5 °F 46.8 °F 29.82 in West 5.1 mph 8.1 mph 78% 0.00 in 0 W/m2
21:08 53.5 °F 46.9 °F 29.82 in West 5.9 mph 8.1 mph 78% 0.00 in 0 W/m2
Peotne Weather
Compliments of Weather Underground - 4 mb